createdAt,value
2022-08-12T00:00:43.384Z,66.90
2022-08-12T00:03:12.258Z,67.00
2022-08-12T00:06:04.815Z,67.10
2022-08-12T00:08:36.939Z,67.20
2022-08-12T00:11:09.852Z,67.80
2022-08-12T00:13:43.109Z,67.30
2022-08-12T00:16:13.153Z,67.60
2022-08-12T00:18:43.336Z,68.00
2022-08-12T00:21:15.351Z,68.10
2022-08-12T00:23:43.178Z,67.70
2022-08-12T00:26:22.668Z,68.10
2022-08-12T00:28:54.797Z,68.20
2022-08-12T00:31:25.136Z,68.40
2022-08-12T00:33:59.369Z,68.90
2022-08-12T00:36:34.803Z,69.10
2022-08-12T00:39:04.583Z,68.30
2022-08-12T00:41:32.293Z,69.20
2022-08-12T00:44:02.834Z,68.90
2022-08-12T00:46:44.717Z,69.70
2022-08-12T00:49:14.080Z,69.40
2022-08-12T00:51:45.853Z,69.50
2022-08-12T00:54:13.714Z,69.50
2022-08-12T00:56:42.367Z,69.60
2022-08-12T00:59:18.859Z,69.90
2022-08-12T01:02:11.786Z,70.20
2022-08-12T01:04:43.940Z,70.70
2022-08-12T01:07:14.235Z,70.70
2022-08-12T01:09:47.005Z,70.30
2022-08-12T01:12:15.774Z,70.40
2022-08-12T01:14:44.015Z,70.30
2022-08-12T01:17:12.407Z,70.40
2022-08-12T01:19:41.300Z,70.50
2022-08-12T01:22:34.383Z,70.60
2022-08-12T01:25:12.415Z,70.60
2022-08-12T01:27:42.399Z,70.80
2022-08-12T01:30:13.384Z,71.10
2022-08-12T01:32:42.228Z,70.70
2022-08-12T01:35:14.974Z,71.20
2022-08-12T01:38:06.961Z,71.10
2022-08-12T01:40:42.540Z,70.80
2022-08-12T01:43:20.550Z,70.90
2022-08-12T01:46:24.744Z,71.50
2022-08-12T01:49:29.896Z,71.90
2022-08-12T01:52:20.392Z,71.10
2022-08-12T01:54:55.821Z,71.10
2022-08-12T01:58:15.109Z,71.70
2022-08-12T02:00:55.377Z,71.60
2022-08-12T02:03:54.514Z,72.20
2022-08-12T02:06:32.775Z,72.40
2022-08-12T02:09:04.112Z,73.10
2022-08-12T02:11:35.890Z,72.50
2022-08-12T02:14:39.918Z,71.90
2022-08-12T02:17:56.298Z,72.00
2022-08-12T02:20:52.913Z,71.60
2022-08-12T02:23:25.890Z,71.40
2022-08-12T02:25:59.168Z,71.50
2022-08-12T02:28:27.968Z,71.60
2022-08-12T02:31:04.356Z,71.70
2022-08-12T02:33:37.439Z,71.70
2022-08-12T02:36:05.830Z,71.90
2022-08-12T02:38:35.903Z,71.70
2022-08-12T02:41:05.415Z,72.00
2022-08-12T02:44:04.541Z,72.50
2022-08-12T02:46:34.118Z,72.60
2022-08-12T02:49:22.636Z,72.70
2022-08-12T02:51:51.080Z,73.40
2022-08-12T02:54:20.062Z,73.20
2022-08-12T02:56:50.713Z,73.00
2022-08-12T02:59:22.505Z,73.60
2022-08-12T03:02:05.380Z,73.90
2022-08-12T03:05:09.700Z,74.20
2022-08-12T03:07:56.094Z,73.90
2022-08-12T03:10:34.706Z,74.00
2022-08-12T03:13:08.583Z,74.00
2022-08-12T03:15:35.952Z,73.70
2022-08-12T03:18:45.819Z,73.50
2022-08-12T03:21:53.029Z,73.50
2022-08-12T03:24:16.402Z,73.70
2022-08-12T03:26:47.909Z,73.80
2022-08-12T03:29:17.765Z,73.70
2022-08-12T03:31:54.341Z,73.90
2022-08-12T03:34:26.499Z,73.80
2022-08-12T03:36:56.799Z,74.10
2022-08-12T03:39:36.071Z,74.20
2022-08-12T03:42:28.404Z,74.50
2022-08-12T03:45:22.098Z,74.30
2022-08-12T03:48:18.639Z,74.70
2022-08-12T03:50:49.824Z,73.90
2022-08-12T03:53:25.830Z,74.10
2022-08-12T03:55:54.502Z,74.50
2022-08-12T03:58:22.441Z,74.10
2022-08-12T04:00:50.687Z,74.10
2022-08-12T04:03:19.328Z,74.20
2022-08-12T04:05:56.023Z,74.10
2022-08-12T04:08:28.304Z,74.40
2022-08-12T04:10:58.309Z,74.90
2022-08-12T04:13:25.869Z,74.70
2022-08-12T04:15:57.547Z,75.20
2022-08-12T04:18:25.458Z,75.20
2022-08-12T04:20:57.045Z,74.90
2022-08-12T04:23:26.113Z,75.10
2022-08-12T04:25:54.042Z,75.20
2022-08-12T04:28:30.821Z,75.10
2022-08-12T04:30:59.067Z,75.00
2022-08-12T04:33:29.033Z,75.20
2022-08-12T04:35:57.247Z,75.60
2022-08-12T04:38:25.694Z,75.50
2022-08-12T04:40:54.293Z,75.10
2022-08-12T04:44:01.021Z,75.20
2022-08-12T04:46:22.885Z,75.10
2022-08-12T04:48:53.392Z,75.00
2022-08-12T04:51:24.259Z,75.00
2022-08-12T04:53:54.150Z,75.30
2022-08-12T04:56:21.405Z,75.40
2022-08-12T04:58:52.568Z,75.50
2022-08-12T05:01:21.191Z,75.30
2022-08-12T05:03:51.059Z,75.30
2022-08-12T05:06:26.793Z,75.40
2022-08-12T05:08:58.399Z,75.10
2022-08-12T05:11:27.267Z,75.00
2022-08-12T05:13:59.509Z,74.90
2022-08-12T05:16:32.518Z,74.80
2022-08-12T05:19:04.759Z,74.90
2022-08-12T05:21:35.714Z,75.20
2022-08-12T05:24:03.828Z,75.20
2022-08-12T05:26:34.287Z,75.10
2022-08-12T05:29:09.159Z,75.00
2022-08-12T05:31:54.654Z,75.10
2022-08-12T05:34:26.671Z,75.10
2022-08-12T05:36:54.432Z,75.10
2022-08-12T05:39:24.388Z,75.00
2022-08-12T05:41:54.822Z,75.00
2022-08-12T05:44:22.714Z,74.90
2022-08-12T05:46:53.008Z,75.00
2022-08-12T05:49:23.001Z,74.70
2022-08-12T05:51:53.235Z,74.70
2022-08-12T05:54:31.008Z,74.70
2022-08-12T05:57:11.557Z,74.90
2022-08-12T05:59:39.098Z,74.90
2022-08-12T06:02:10.287Z,75.30
2022-08-12T06:04:43.422Z,75.30
2022-08-12T06:07:37.407Z,75.30
2022-08-12T06:10:03.071Z,75.50
2022-08-12T06:12:33.476Z,75.50
2022-08-12T06:15:03.916Z,75.20
2022-08-12T06:17:34.141Z,75.30
2022-08-12T06:20:27.433Z,74.90
2022-08-12T06:22:55.274Z,75.00
2022-08-12T06:25:23.565Z,75.00
2022-08-12T06:28:06.920Z,75.40
2022-08-12T06:30:39.920Z,75.00
2022-08-12T06:33:21.027Z,75.50
2022-08-12T06:35:58.699Z,74.60
2022-08-12T06:38:28.887Z,74.20
2022-08-12T06:40:58.849Z,73.40
2022-08-12T06:43:29.133Z,73.00
2022-08-12T06:46:25.009Z,72.70
2022-08-12T06:48:55.361Z,72.50
2022-08-12T06:51:25.323Z,72.00
2022-08-12T06:53:53.035Z,71.60
2022-08-12T06:56:21.149Z,71.60
2022-08-12T06:58:51.575Z,71.60
2022-08-12T07:01:20.781Z,71.20
2022-08-12T07:03:50.681Z,71.00
2022-08-12T07:06:21.339Z,70.80
2022-08-12T07:08:49.327Z,70.70
2022-08-12T07:11:17.359Z,70.70
2022-08-12T07:14:11.461Z,70.70
2022-08-12T07:16:37.992Z,70.70
2022-08-12T07:19:08.113Z,70.60
2022-08-12T07:21:59.993Z,70.80
2022-08-12T07:24:25.534Z,70.80
2022-08-12T07:26:55.997Z,70.70
2022-08-12T07:29:58.286Z,71.10
2022-08-12T07:32:14.956Z,70.30
2022-08-12T07:34:43.878Z,70.50
2022-08-12T07:37:13.094Z,69.90
2022-08-12T07:39:51.040Z,69.70
2022-08-12T07:42:29.271Z,69.50
2022-08-12T07:44:57.231Z,69.40
2022-08-12T07:47:25.263Z,69.30
2022-08-12T07:50:05.374Z,69.30
2022-08-12T07:52:45.160Z,69.10
2022-08-12T07:55:16.962Z,68.90
2022-08-12T07:57:56.198Z,68.80
2022-08-12T08:00:27.884Z,68.70
2022-08-12T08:02:57.621Z,68.50
2022-08-12T08:05:28.507Z,68.60
2022-08-12T08:07:56.563Z,68.40
2022-08-12T08:10:24.089Z,68.20
2022-08-12T08:12:57.541Z,68.10
2022-08-12T08:16:00.701Z,67.90
2022-08-12T08:18:26.952Z,67.80
2022-08-12T08:20:56.768Z,67.70
2022-08-12T08:23:34.953Z,67.00
2022-08-12T08:26:03.669Z,66.50
2022-08-12T08:28:32.159Z,66.10
2022-08-12T08:31:03.521Z,66.10
2022-08-12T08:34:09.533Z,65.70
2022-08-12T08:36:24.067Z,65.30
2022-08-12T08:38:53.211Z,65.10
2022-08-12T08:42:16.429Z,65.10
2022-08-12T08:44:18.565Z,65.20
2022-08-12T08:46:47.099Z,65.10
2022-08-12T08:49:15.213Z,64.90
2022-08-12T08:51:46.373Z,64.40
2022-08-12T08:54:13.726Z,64.40
2022-08-12T08:56:45.943Z,64.20
2022-08-12T08:59:14.269Z,63.60
2022-08-12T09:01:44.512Z,63.40
2022-08-12T09:05:13.646Z,63.00
2022-08-12T09:07:18.118Z,62.80
2022-08-12T09:15:41.703Z,61.20
2022-08-12T09:18:11.319Z,60.70
2022-08-12T09:20:43.201Z,60.50
2022-08-12T09:23:57.142Z,60.60
2022-08-12T09:26:04.309Z,60.80
2022-08-12T09:28:32.849Z,60.30
2022-08-12T09:31:02.908Z,60.00
2022-08-12T09:34:29.010Z,60.40
2022-08-12T09:36:30.660Z,59.90
2022-08-12T09:39:01.148Z,59.50
2022-08-12T09:42:08.450Z,59.10
2022-08-12T09:44:39.140Z,59.00
2022-08-12T09:47:10.659Z,58.50
2022-08-12T09:49:42.465Z,58.40
2022-08-12T09:52:13.346Z,58.30
2022-08-12T09:54:43.909Z,58.50
2022-08-12T09:58:50.355Z,58.30
2022-08-12T10:00:12.896Z,58.40
2022-08-12T10:03:07.995Z,58.40
2022-08-12T10:06:19.788Z,58.00
2022-08-12T10:08:52.146Z,56.90
2022-08-12T10:11:21.680Z,56.60
2022-08-12T10:13:54.316Z,56.00
2022-08-12T10:16:32.803Z,56.10
2022-08-12T10:19:06.477Z,56.20
2022-08-12T10:21:46.051Z,56.00
2022-08-12T10:24:19.942Z,56.10
2022-08-12T10:26:50.288Z,56.20
2022-08-12T10:30:03.875Z,56.50
2022-08-12T10:32:42.727Z,56.50
2022-08-12T10:35:13.405Z,55.60
2022-08-12T10:38:34.846Z,55.60
2022-08-12T10:40:34.111Z,55.70
2022-08-12T10:43:06.447Z,55.60
2022-08-12T10:45:38.195Z,55.70
2022-08-12T10:48:21.822Z,55.50
2022-08-12T10:51:01.587Z,55.50
2022-08-12T10:53:44.753Z,55.40
2022-08-12T10:56:18.153Z,54.90
2022-08-12T10:58:47.908Z,55.40
2022-08-12T11:01:49.419Z,55.20
2022-08-12T11:04:27.573Z,55.40
2022-08-12T11:07:05.240Z,54.80
2022-08-12T11:10:00.001Z,54.50
2022-08-12T11:12:59.431Z,54.60
2022-08-12T11:16:02.834Z,54.40
2022-08-12T11:18:18.991Z,54.20
2022-08-12T11:20:47.867Z,54.30
2022-08-12T11:23:24.954Z,54.00
2022-08-12T11:26:06.982Z,54.00
2022-08-12T11:28:39.081Z,53.80
2022-08-12T11:31:09.926Z,53.00
2022-08-12T11:34:04.656Z,53.00
2022-08-12T11:36:33.550Z,53.00
2022-08-12T11:39:08.136Z,52.70
2022-08-12T11:41:43.731Z,52.80
2022-08-12T11:44:35.418Z,52.40
2022-08-12T11:47:09.507Z,52.40
2022-08-12T11:49:37.822Z,52.30
2022-08-12T11:52:26.564Z,52.30
2022-08-12T11:54:54.346Z,52.30
2022-08-12T11:58:15.220Z,52.10
2022-08-12T12:03:04.427Z,51.40
2022-08-12T12:05:41.782Z,51.40
2022-08-12T12:08:37.445Z,51.10
2022-08-12T12:11:10.551Z,50.50
2022-08-12T12:14:07.855Z,50.30
2022-08-12T12:16:29.995Z,50.70
2022-08-12T12:18:59.655Z,49.90
2022-08-12T12:21:47.647Z,49.60
2022-08-12T12:24:22.479Z,49.80
2022-08-12T12:27:00.763Z,49.00
2022-08-12T12:30:18.007Z,48.70
2022-08-12T12:32:29.349Z,48.50
2022-08-12T12:35:14.637Z,48.40
2022-08-12T12:38:05.194Z,48.30
2022-08-12T12:40:43.984Z,48.50
2022-08-12T12:43:13.469Z,48.10
2022-08-12T12:45:46.423Z,48.00
2022-08-12T12:48:21.558Z,47.50
2022-08-12T12:51:04.979Z,47.70
2022-08-12T12:54:07.007Z,47.80
2022-08-12T12:56:34.514Z,46.80
2022-08-12T12:59:04.715Z,46.80
2022-08-12T13:01:41.855Z,46.40
2022-08-12T13:04:12.318Z,45.90
2022-08-12T13:06:41.004Z,45.90
2022-08-12T13:09:13.060Z,45.60
2022-08-12T13:11:44.579Z,45.10
2022-08-12T13:14:30.934Z,45.00
2022-08-12T13:16:59.928Z,44.20
2022-08-12T13:19:38.612Z,44.40
2022-08-12T13:22:20.335Z,44.40
2022-08-12T13:24:55.969Z,44.70
2022-08-12T13:27:28.401Z,44.40
2022-08-12T13:30:04.183Z,44.50
2022-08-12T13:32:35.084Z,44.90
2022-08-12T13:35:20.204Z,44.50
2022-08-12T13:37:58.010Z,45.20
2022-08-12T13:40:29.026Z,45.60
2022-08-12T13:42:57.608Z,45.30
2022-08-12T13:45:26.961Z,45.50
2022-08-12T13:48:06.441Z,45.20
2022-08-12T13:50:39.844Z,45.50
2022-08-12T13:53:23.764Z,45.90
2022-08-12T13:56:01.381Z,46.30
2022-08-12T13:58:33.023Z,46.30
2022-08-12T14:01:09.161Z,46.20
2022-08-12T14:03:51.078Z,45.80
2022-08-12T14:06:25.960Z,45.40
2022-08-12T14:09:17.365Z,45.10
2022-08-12T14:11:58.486Z,44.80
2022-08-12T14:14:36.451Z,44.10
2022-08-12T14:17:08.110Z,44.00
2022-08-12T14:19:48.610Z,42.90
2022-08-12T14:22:25.967Z,43.70
2022-08-12T14:24:54.961Z,43.00
2022-08-12T14:28:02.737Z,42.40
2022-08-12T14:30:17.145Z,42.70
2022-08-12T14:32:53.515Z,42.20
2022-08-12T14:35:21.689Z,42.20
2022-08-12T14:37:58.940Z,42.10
2022-08-12T14:40:29.116Z,42.00
2022-08-12T14:42:58.011Z,41.90
2022-08-12T14:45:44.411Z,41.70
2022-08-12T14:48:24.062Z,41.70
2022-08-12T14:52:48.316Z,41.10
2022-08-12T14:54:55.858Z,41.00
2022-08-12T14:59:57.947Z,42.00
2022-08-12T15:02:17.535Z,42.40
2022-08-12T15:04:47.656Z,42.70
2022-08-12T15:07:34.272Z,42.80
2022-08-12T15:10:06.927Z,42.80
2022-08-12T15:12:40.506Z,42.20
2022-08-12T15:15:10.549Z,42.30
2022-08-12T15:17:39.744Z,42.30
2022-08-12T15:20:31.888Z,42.00
2022-08-12T15:22:59.289Z,41.80
2022-08-12T15:25:39.934Z,42.00
2022-08-12T15:28:22.586Z,41.70
2022-08-12T15:30:54.755Z,41.90
2022-08-12T15:33:25.710Z,41.70
2022-08-12T15:36:19.577Z,41.80
2022-08-12T15:39:04.894Z,41.80
2022-08-12T15:41:49.049Z,41.80
2022-08-12T15:44:38.109Z,41.90
2022-08-12T15:47:16.277Z,41.80
2022-08-12T15:49:59.859Z,42.50
2022-08-12T15:52:35.323Z,42.10
2022-08-12T15:55:11.229Z,41.80
2022-08-12T15:57:44.735Z,41.50
2022-08-12T16:00:38.693Z,41.40
2022-08-12T16:03:08.392Z,41.50
2022-08-12T16:06:12.196Z,41.50
2022-08-12T16:08:34.905Z,41.40
2022-08-12T16:11:07.406Z,41.40
2022-08-12T16:13:44.611Z,41.50
2022-08-12T16:16:23.958Z,41.50
2022-08-12T16:19:09.587Z,42.00
2022-08-12T16:21:58.636Z,41.80
2022-08-12T16:24:27.324Z,41.90
2022-08-12T16:26:55.956Z,42.10
2022-08-12T16:29:23.826Z,42.20
2022-08-12T16:31:51.843Z,42.30
2022-08-12T16:34:26.177Z,42.40
2022-08-12T16:37:10.800Z,42.40
2022-08-12T16:40:01.734Z,42.60
2022-08-12T16:42:53.736Z,42.60
2022-08-12T16:46:05.195Z,42.80
2022-08-12T16:48:35.630Z,42.90
2022-08-12T16:51:17.089Z,43.00
2022-08-12T16:53:46.163Z,43.00
2022-08-12T16:56:15.601Z,43.00
2022-08-12T16:58:43.678Z,43.10
2022-08-12T17:01:14.440Z,43.30
2022-08-12T17:04:00.071Z,43.20
2022-08-12T17:06:28.165Z,43.40
2022-08-12T17:08:57.162Z,44.00
2022-08-12T17:11:28.306Z,43.60
2022-08-12T17:13:57.870Z,43.60
2022-08-12T17:16:29.961Z,43.70
2022-08-12T17:19:03.378Z,43.90
2022-08-12T17:21:51.855Z,43.80
2022-08-12T17:24:39.940Z,43.80
2022-08-12T17:27:16.377Z,44.00
2022-08-12T17:30:01.943Z,44.00
2022-08-12T17:32:33.199Z,44.40
2022-08-12T17:35:05.454Z,44.60
2022-08-12T17:37:35.397Z,45.00
2022-08-12T17:40:16.266Z,45.20
2022-08-12T17:42:51.284Z,45.30
2022-08-12T17:45:20.159Z,45.40
2022-08-12T17:48:01.650Z,45.50
2022-08-12T17:50:36.301Z,45.50
2022-08-12T17:53:07.950Z,45.70
2022-08-12T17:55:47.382Z,46.30
2022-08-12T17:58:18.401Z,46.00
2022-08-12T18:00:51.342Z,46.20
2022-08-12T18:04:04.447Z,46.40
2022-08-12T18:06:14.628Z,46.70
2022-08-12T18:08:54.801Z,46.80
2022-08-12T18:12:05.036Z,47.10
2022-08-12T18:14:27.662Z,47.60
2022-08-12T18:17:00.690Z,47.70
2022-08-12T18:20:04.048Z,47.90
2022-08-12T18:22:22.202Z,48.50
2022-08-12T18:25:04.749Z,48.10
2022-08-12T18:27:44.410Z,48.50
2022-08-12T18:30:20.502Z,48.70
2022-08-12T18:33:05.314Z,48.70
2022-08-12T18:35:53.420Z,49.00
2022-08-12T18:38:26.334Z,49.10
2022-08-12T18:40:55.459Z,49.20
2022-08-12T18:43:25.691Z,49.70
2022-08-12T18:46:01.338Z,49.70
2022-08-12T18:48:30.381Z,49.80
2022-08-12T18:51:10.588Z,50.10
2022-08-12T18:54:07.180Z,51.10
2022-08-12T18:56:39.797Z,50.30
2022-08-12T18:59:10.115Z,50.80
2022-08-12T19:02:20.830Z,50.90
2022-08-12T19:04:33.498Z,51.00
2022-08-12T19:07:04.091Z,51.30
2022-08-12T19:09:57.582Z,51.30
2022-08-12T19:12:24.159Z,51.60
2022-08-12T19:15:04.233Z,51.90
2022-08-12T19:17:47.525Z,52.10
2022-08-12T19:20:25.031Z,52.40
2022-08-12T19:23:02.072Z,52.40
2022-08-12T19:25:55.397Z,52.30
2022-08-12T19:28:36.503Z,52.60
2022-08-12T19:31:20.308Z,52.50
2022-08-12T19:34:14.591Z,52.80
2022-08-12T19:36:43.768Z,53.20
2022-08-12T19:39:15.363Z,53.30
2022-08-12T19:42:00.507Z,53.10
2022-08-12T19:44:32.556Z,53.20
2022-08-12T19:47:03.598Z,53.50
2022-08-12T19:49:31.440Z,53.50
2022-08-12T19:52:01.207Z,53.40
2022-08-12T19:54:30.451Z,53.70
2022-08-12T19:56:59.168Z,54.00
2022-08-12T19:59:42.941Z,54.20
2022-08-12T20:02:21.194Z,54.30
2022-08-12T20:06:06.997Z,54.20
2022-08-12T20:07:56.979Z,54.40
2022-08-12T20:10:37.649Z,54.30
2022-08-12T20:13:18.673Z,54.30
2022-08-12T20:15:50.937Z,54.60
2022-08-12T20:18:44.540Z,54.60
2022-08-12T20:21:24.579Z,54.60
2022-08-12T20:24:00.899Z,54.80
2022-08-12T20:26:30.453Z,55.00
2022-08-12T20:29:08.744Z,54.90
2022-08-12T20:31:37.626Z,55.10
2022-08-12T20:34:06.092Z,55.20
2022-08-12T20:36:41.703Z,55.30
2022-08-12T20:39:52.033Z,55.60
2022-08-12T20:42:10.068Z,55.70
2022-08-12T20:44:40.666Z,55.90
2022-08-12T20:47:17.997Z,56.00
2022-08-12T20:49:55.750Z,55.80
2022-08-12T20:52:29.955Z,56.10
2022-08-12T20:54:58.003Z,56.30
2022-08-12T20:57:38.069Z,56.30
2022-08-12T21:00:08.178Z,56.50
2022-08-12T21:02:38.381Z,56.70
2022-08-12T21:05:16.051Z,56.70
2022-08-12T21:07:47.818Z,56.70
2022-08-12T21:10:18.588Z,56.80
2022-08-12T21:12:48.292Z,56.90
2022-08-12T21:15:24.365Z,57.00
2022-08-12T21:18:11.679Z,57.10
2022-08-12T21:20:50.984Z,57.20
2022-08-12T21:23:19.101Z,57.40
2022-08-12T21:25:46.104Z,57.60
2022-08-12T21:28:16.179Z,57.60
2022-08-12T21:31:11.041Z,57.90
2022-08-12T21:33:58.548Z,57.90
2022-08-12T21:36:22.525Z,58.10
2022-08-12T21:39:18.230Z,58.50
2022-08-12T21:41:51.706Z,59.00
2022-08-12T21:44:24.770Z,59.20
2022-08-12T21:47:21.163Z,59.00
2022-08-12T21:49:53.994Z,59.10
2022-08-12T21:52:28.327Z,59.50
2022-08-12T21:55:04.428Z,59.50
2022-08-12T21:57:48.197Z,59.30
2022-08-12T22:00:19.571Z,59.40
2022-08-12T22:02:48.554Z,59.50
2022-08-12T22:05:15.390Z,59.60
2022-08-12T22:07:52.896Z,59.60
2022-08-12T22:10:28.346Z,59.80
2022-08-12T22:12:55.994Z,59.80
2022-08-12T22:15:23.320Z,59.80
2022-08-12T22:17:55.572Z,60.00
2022-08-12T22:20:23.765Z,60.00
2022-08-12T22:22:57.039Z,60.30
2022-08-12T22:25:24.311Z,60.50
2022-08-12T22:27:53.572Z,60.50
2022-08-12T22:30:21.672Z,60.80
2022-08-12T22:32:51.686Z,60.80
2022-08-12T22:35:24.241Z,60.70
2022-08-12T22:38:19.391Z,60.70
2022-08-12T22:40:50.873Z,61.00
2022-08-12T22:43:17.810Z,61.30
2022-08-12T22:45:56.144Z,61.10
2022-08-12T22:48:26.693Z,61.40
2022-08-12T22:50:53.583Z,61.20
2022-08-12T22:53:20.259Z,61.50
2022-08-12T22:56:00.450Z,61.60
2022-08-12T22:58:34.332Z,61.60
2022-08-12T23:01:02.426Z,61.60
2022-08-12T23:03:47.651Z,61.70
2022-08-12T23:06:16.565Z,61.90
2022-08-12T23:08:43.262Z,61.80
2022-08-12T23:11:10.193Z,62.40
2022-08-12T23:13:42.311Z,62.30
2022-08-12T23:16:28.422Z,62.20
2022-08-12T23:19:09.653Z,62.50
2022-08-12T23:22:04.393Z,62.60
2022-08-12T23:24:33.062Z,62.70
2022-08-12T23:27:03.457Z,63.40
2022-08-12T23:29:43.362Z,63.70
2022-08-12T23:32:36.083Z,65.00
2022-08-12T23:35:06.548Z,65.90
2022-08-12T23:37:47.036Z,66.10
2022-08-12T23:40:19.861Z,65.70
2022-08-12T23:42:51.580Z,66.00
2022-08-12T23:45:31.117Z,65.50
2022-08-12T23:48:01.844Z,65.80
2022-08-12T23:50:34.417Z,66.00
2022-08-12T23:53:05.437Z,66.20
2022-08-12T23:55:34.950Z,66.30
2022-08-12T23:58:23.168Z,66.30
